sensor_id;sensor_type;location;lat;lon;timestamp;temperature;humidity
51500;DHT22;39101;53.478;6.158;2022-08-01T00:01:12;17.50;99.90
51500;DHT22;39101;53.478;6.158;2022-08-01T00:03:38;17.50;99.90
51500;DHT22;39101;53.478;6.158;2022-08-01T00:06:04;17.50;99.90
51500;DHT22;39101;53.478;6.158;2022-08-01T00:08:30;17.40;99.90
51500;DHT22;39101;53.478;6.158;2022-08-01T00:10:57;17.40;99.90
51500;DHT22;39101;53.478;6.158;2022-08-01T00:13:23;17.60;99.90
51500;DHT22;39101;53.478;6.158;2022-08-01T00:15:48;17.50;99.90
51500;DHT22;39101;53.478;6.158;2022-08-01T00:18:14;17.40;99.90
51500;DHT22;39101;53.478;6.158;2022-08-01T00:20:40;17.40;99.90
51500;DHT22;39101;53.478;6.158;2022-08-01T00:23:05;17.40;99.90
51500;DHT22;39101;53.478;6.158;2022-08-01T00:25:31;17.40;99.90
51500;DHT22;39101;53.478;6.158;2022-08-01T00:27:57;17.10;99.90
51500;DHT22;39101;53.478;6.158;2022-08-01T00:30:24;17.20;99.90
51500;DHT22;39101;53.478;6.158;2022-08-01T00:36:30;17.10;99.90
51500;DHT22;39101;53.478;6.158;2022-08-01T00:38:56;17.10;99.90
51500;DHT22;39101;53.478;6.158;2022-08-01T00:41:23;17.10;99.90
51500;DHT22;39101;53.478;6.158;2022-08-01T00:43:48;17.00;99.90
51500;DHT22;39101;53.478;6.158;2022-08-01T00:46:14;17.20;99.90
51500;DHT22;39101;53.478;6.158;2022-08-01T00:48:40;17.20;99.90
51500;DHT22;39101;53.478;6.158;2022-08-01T00:51:07;17.00;99.90
51500;DHT22;39101;53.478;6.158;2022-08-01T00:53:40;17.20;99.90
51500;DHT22;39101;53.478;6.158;2022-08-01T00:56:06;17.10;99.90
51500;DHT22;39101;53.478;6.158;2022-08-01T00:58:33;17.00;99.90
51500;DHT22;39101;53.478;6.158;2022-08-01T01:00:59;17.10;99.90
51500;DHT22;39101;53.478;6.158;2022-08-01T01:03:26;16.90;99.90
51500;DHT22;39101;53.478;6.158;2022-08-01T01:08:46;16.90;99.90
51500;DHT22;39101;53.478;6.158;2022-08-01T01:11:32;17.00;99.90
51500;DHT22;39101;53.478;6.158;2022-08-01T01:14:05;16.90;99.90
51500;DHT22;39101;53.478;6.158;2022-08-01T01:16:33;17.00;99.90
51500;DHT22;39101;53.478;6.158;2022-08-01T01:19:04;17.00;99.90
51500;DHT22;39101;53.478;6.158;2022-08-01T01:21:35;16.90;99.90
51500;DHT22;39101;53.478;6.158;2022-08-01T01:32:31;16.80;99.90
51500;DHT22;39101;53.478;6.158;2022-08-01T01:35:21;16.90;99.90
51500;DHT22;39101;53.478;6.158;2022-08-01T01:37:54;16.60;99.90
51500;DHT22;39101;53.478;6.158;2022-08-01T01:40:22;16.70;99.90
51500;DHT22;39101;53.478;6.158;2022-08-01T01:42:50;16.70;99.90
51500;DHT22;39101;53.478;6.158;2022-08-01T01:45:18;16.60;99.90
51500;DHT22;39101;53.478;6.158;2022-08-01T01:47:45;16.50;99.90
51500;DHT22;39101;53.478;6.158;2022-08-01T01:50:11;16.50;99.90
51500;DHT22;39101;53.478;6.158;2022-08-01T01:52:39;16.50;99.90
51500;DHT22;39101;53.478;6.158;2022-08-01T01:55:07;16.50;99.90
51500;DHT22;39101;53.478;6.158;2022-08-01T01:57:39;16.60;99.90
51500;DHT22;39101;53.478;6.158;2022-08-01T02:00:07;16.50;99.90
51500;DHT22;39101;53.478;6.158;2022-08-01T02:02:36;16.70;99.90
51500;DHT22;39101;53.478;6.158;2022-08-01T02:05:02;16.60;99.90
51500;DHT22;39101;53.478;6.158;2022-08-01T02:07:28;16.60;99.90
51500;DHT22;39101;53.478;6.158;2022-08-01T02:09:55;16.60;99.90
51500;DHT22;39101;53.478;6.158;2022-08-01T02:12:22;16.60;99.90
51500;DHT22;39101;53.478;6.158;2022-08-01T02:14:50;16.40;99.90
51500;DHT22;39101;53.478;6.158;2022-08-01T02:21:05;16.40;99.90
51500;DHT22;39101;53.478;6.158;2022-08-01T02:23:34;16.50;99.90
51500;DHT22;39101;53.478;6.158;2022-08-01T02:26:06;16.40;99.90
51500;DHT22;39101;53.478;6.158;2022-08-01T02:28:38;16.40;99.90
51500;DHT22;39101;53.478;6.158;2022-08-01T02:31:09;16.50;99.90
51500;DHT22;39101;53.478;6.158;2022-08-01T02:33:39;16.40;99.90
51500;DHT22;39101;53.478;6.158;2022-08-01T02:36:07;16.30;99.90
51500;DHT22;39101;53.478;6.158;2022-08-01T02:38:35;16.40;99.90
51500;DHT22;39101;53.478;6.158;2022-08-01T02:41:12;16.30;99.90
51500;DHT22;39101;53.478;6.158;2022-08-01T02:47:02;16.20;99.90
51500;DHT22;39101;53.478;6.158;2022-08-01T02:52:46;16.20;99.90
51500;DHT22;39101;53.478;6.158;2022-08-01T02:55:14;16.20;99.90
51500;DHT22;39101;53.478;6.158;2022-08-01T02:57:42;16.10;99.90
51500;DHT22;39101;53.478;6.158;2022-08-01T03:00:13;16.10;99.90
51500;DHT22;39101;53.478;6.158;2022-08-01T03:02:40;16.00;99.90
51500;DHT22;39101;53.478;6.158;2022-08-01T03:05:11;16.00;99.90
51500;DHT22;39101;53.478;6.158;2022-08-01T03:07:38;16.00;99.90
51500;DHT22;39101;53.478;6.158;2022-08-01T03:10:05;16.10;99.90
51500;DHT22;39101;53.478;6.158;2022-08-01T03:12:33;16.10;99.90
51500;DHT22;39101;53.478;6.158;2022-08-01T03:15:02;16.00;99.90
51500;DHT22;39101;53.478;6.158;2022-08-01T03:17:29;15.90;99.90
51500;DHT22;39101;53.478;6.158;2022-08-01T03:19:57;16.00;99.90
51500;DHT22;39101;53.478;6.158;2022-08-01T03:22:26;15.90;99.90
51500;DHT22;39101;53.478;6.158;2022-08-01T03:24:54;15.90;99.90
51500;DHT22;39101;53.478;6.158;2022-08-01T03:27:23;15.80;99.90
51500;DHT22;39101;53.478;6.158;2022-08-01T03:29:51;15.80;99.90
51500;DHT22;39101;53.478;6.158;2022-08-01T03:32:21;15.80;99.90
51500;DHT22;39101;53.478;6.158;2022-08-01T03:34:48;15.80;99.90
51500;DHT22;39101;53.478;6.158;2022-08-01T03:37:29;15.80;99.90
51500;DHT22;39101;53.478;6.158;2022-08-01T03:40:08;15.70;99.90
51500;DHT22;39101;53.478;6.158;2022-08-01T03:45:51;15.70;99.90
51500;DHT22;39101;53.478;6.158;2022-08-01T03:48:26;15.70;99.90
51500;DHT22;39101;53.478;6.158;2022-08-01T03:50:53;15.70;99.90
51500;DHT22;39101;53.478;6.158;2022-08-01T03:53:26;15.60;99.90
51500;DHT22;39101;53.478;6.158;2022-08-01T03:55:56;15.60;99.90
51500;DHT22;39101;53.478;6.158;2022-08-01T03:58:24;15.60;99.90
51500;DHT22;39101;53.478;6.158;2022-08-01T04:00:51;15.60;99.90
51500;DHT22;39101;53.478;6.158;2022-08-01T04:03:24;15.50;99.90
51500;DHT22;39101;53.478;6.158;2022-08-01T04:05:51;15.50;99.90
51500;DHT22;39101;53.478;6.158;2022-08-01T04:08:17;15.50;99.90
51500;DHT22;39101;53.478;6.158;2022-08-01T04:10:43;15.50;99.90
51500;DHT22;39101;53.478;6.158;2022-08-01T04:13:08;15.60;99.90
51500;DHT22;39101;53.478;6.158;2022-08-01T04:15:34;15.60;99.90
51500;DHT22;39101;53.478;6.158;2022-08-01T04:18:00;15.60;99.90
51500;DHT22;39101;53.478;6.158;2022-08-01T04:20:26;15.50;99.90
51500;DHT22;39101;53.478;6.158;2022-08-01T04:22:53;15.60;99.90
51500;DHT22;39101;53.478;6.158;2022-08-01T04:25:26;15.60;99.90
51500;DHT22;39101;53.478;6.158;2022-08-01T04:28:01;15.50;99.90
51500;DHT22;39101;53.478;6.158;2022-08-01T04:30:31;15.60;99.90
51500;DHT22;39101;53.478;6.158;2022-08-01T04:33:01;15.60;99.90
51500;DHT22;39101;53.478;6.158;2022-08-01T04:35:28;15.70;99.90
51500;DHT22;39101;53.478;6.158;2022-08-01T04:37:55;15.60;99.90
51500;DHT22;39101;53.478;6.158;2022-08-01T04:40:22;15.60;99.90
51500;DHT22;39101;53.478;6.158;2022-08-01T04:42:49;15.70;99.90
51500;DHT22;39101;53.478;6.158;2022-08-01T04:45:15;15.70;99.90
51500;DHT22;39101;53.478;6.158;2022-08-01T04:47:43;15.70;99.90
51500;DHT22;39101;53.478;6.158;2022-08-01T04:50:10;15.80;99.90
51500;DHT22;39101;53.478;6.158;2022-08-01T04:52:37;15.80;99.90
51500;DHT22;39101;53.478;6.158;2022-08-01T04:55:04;15.70;99.90
51500;DHT22;39101;53.478;6.158;2022-08-01T04:57:37;15.70;99.90
51500;DHT22;39101;53.478;6.158;2022-08-01T05:00:04;15.70;99.90
51500;DHT22;39101;53.478;6.158;2022-08-01T05:02:32;15.80;99.90
51500;DHT22;39101;53.478;6.158;2022-08-01T05:04:59;15.80;99.90
51500;DHT22;39101;53.478;6.158;2022-08-01T05:07:25;15.80;99.90
51500;DHT22;39101;53.478;6.158;2022-08-01T05:09:50;15.70;99.90
51500;DHT22;39101;53.478;6.158;2022-08-01T05:12:18;15.80;99.90
51500;DHT22;39101;53.478;6.158;2022-08-01T05:14:45;15.80;99.90
51500;DHT22;39101;53.478;6.158;2022-08-01T05:17:11;15.80;99.90
51500;DHT22;39101;53.478;6.158;2022-08-01T05:19:38;15.80;99.90
51500;DHT22;39101;53.478;6.158;2022-08-01T05:22:35;15.80;99.90
51500;DHT22;39101;53.478;6.158;2022-08-01T05:25:00;15.80;99.90
51500;DHT22;39101;53.478;6.158;2022-08-01T05:27:26;15.80;99.90
51500;DHT22;39101;53.478;6.158;2022-08-01T05:29:52;15.80;99.90
51500;DHT22;39101;53.478;6.158;2022-08-01T05:32:17;15.80;99.90
51500;DHT22;39101;53.478;6.158;2022-08-01T05:34:43;15.80;99.90
51500;DHT22;39101;53.478;6.158;2022-08-01T05:37:09;15.90;99.90
51500;DHT22;39101;53.478;6.158;2022-08-01T05:39:35;15.90;99.90
51500;DHT22;39101;53.478;6.158;2022-08-01T05:42:02;15.80;99.90
51500;DHT22;39101;53.478;6.158;2022-08-01T05:44:29;15.90;99.90
51500;DHT22;39101;53.478;6.158;2022-08-01T05:46:55;15.80;99.90
51500;DHT22;39101;53.478;6.158;2022-08-01T05:49:20;15.90;99.90
51500;DHT22;39101;53.478;6.158;2022-08-01T05:51:46;15.90;99.90
51500;DHT22;39101;53.478;6.158;2022-08-01T05:54:12;15.90;99.90
51500;DHT22;39101;53.478;6.158;2022-08-01T05:56:37;16.00;99.90
51500;DHT22;39101;53.478;6.158;2022-08-01T05:59:03;16.00;99.90
51500;DHT22;39101;53.478;6.158;2022-08-01T06:01:29;16.00;99.90
51500;DHT22;39101;53.478;6.158;2022-08-01T06:03:55;16.00;99.90
51500;DHT22;39101;53.478;6.158;2022-08-01T06:06:21;16.10;99.90
51500;DHT22;39101;53.478;6.158;2022-08-01T06:08:47;16.20;99.90
51500;DHT22;39101;53.478;6.158;2022-08-01T06:11:13;16.20;99.90
51500;DHT22;39101;53.478;6.158;2022-08-01T06:13:39;16.30;99.90
51500;DHT22;39101;53.478;6.158;2022-08-01T06:16:05;16.40;99.90
51500;DHT22;39101;53.478;6.158;2022-08-01T06:18:30;16.40;99.90
51500;DHT22;39101;53.478;6.158;2022-08-01T06:20:56;16.40;99.90
51500;DHT22;39101;53.478;6.158;2022-08-01T06:23:23;16.50;99.90
51500;DHT22;39101;53.478;6.158;2022-08-01T06:25:53;16.50;99.90
51500;DHT22;39101;53.478;6.158;2022-08-01T06:28:20;16.40;99.90
51500;DHT22;39101;53.478;6.158;2022-08-01T06:30:46;16.40;99.90
51500;DHT22;39101;53.478;6.158;2022-08-01T06:33:13;16.50;99.90
51500;DHT22;39101;53.478;6.158;2022-08-01T06:35:39;16.50;99.90
51500;DHT22;39101;53.478;6.158;2022-08-01T06:38:04;16.50;99.90
51500;DHT22;39101;53.478;6.158;2022-08-01T06:40:30;16.50;99.90
51500;DHT22;39101;53.478;6.158;2022-08-01T06:42:56;16.50;99.90
51500;DHT22;39101;53.478;6.158;2022-08-01T06:45:21;16.60;99.90
51500;DHT22;39101;53.478;6.158;2022-08-01T06:47:53;16.60;99.90
51500;DHT22;39101;53.478;6.158;2022-08-01T06:50:19;16.70;99.90
51500;DHT22;39101;53.478;6.158;2022-08-01T06:52:45;16.70;99.90
51500;DHT22;39101;53.478;6.158;2022-08-01T06:55:11;16.60;99.90
51500;DHT22;39101;53.478;6.158;2022-08-01T06:57:39;16.70;99.90
51500;DHT22;39101;53.478;6.158;2022-08-01T07:00:10;16.70;99.90
51500;DHT22;39101;53.478;6.158;2022-08-01T07:02:38;16.60;99.90
51500;DHT22;39101;53.478;6.158;2022-08-01T07:05:04;16.60;99.90
51500;DHT22;39101;53.478;6.158;2022-08-01T07:07:31;16.60;99.90
51500;DHT22;39101;53.478;6.158;2022-08-01T07:09:57;16.60;99.90
51500;DHT22;39101;53.478;6.158;2022-08-01T07:12:23;16.70;99.90
51500;DHT22;39101;53.478;6.158;2022-08-01T07:14:48;16.70;99.90
51500;DHT22;39101;53.478;6.158;2022-08-01T07:17:14;16.70;99.90
51500;DHT22;39101;53.478;6.158;2022-08-01T07:19:40;16.60;99.90
51500;DHT22;39101;53.478;6.158;2022-08-01T07:22:06;16.70;99.90
51500;DHT22;39101;53.478;6.158;2022-08-01T07:24:31;16.80;99.90
51500;DHT22;39101;53.478;6.158;2022-08-01T07:26:57;16.80;99.90
51500;DHT22;39101;53.478;6.158;2022-08-01T07:29:24;16.80;99.90
51500;DHT22;39101;53.478;6.158;2022-08-01T07:31:55;16.80;99.90
51500;DHT22;39101;53.478;6.158;2022-08-01T07:34:22;16.80;99.90
51500;DHT22;39101;53.478;6.158;2022-08-01T07:36:48;16.80;99.90
51500;DHT22;39101;53.478;6.158;2022-08-01T07:39:14;16.80;99.90
51500;DHT22;39101;53.478;6.158;2022-08-01T07:41:39;16.90;99.90
51500;DHT22;39101;53.478;6.158;2022-08-01T07:44:05;16.90;99.90
51500;DHT22;39101;53.478;6.158;2022-08-01T07:46:31;17.00;99.90
51500;DHT22;39101;53.478;6.158;2022-08-01T07:48:57;17.00;99.90
51500;DHT22;39101;53.478;6.158;2022-08-01T07:51:22;17.00;99.90
51500;DHT22;39101;53.478;6.158;2022-08-01T07:53:48;17.00;99.90
51500;DHT22;39101;53.478;6.158;2022-08-01T07:56:14;17.10;99.90
51500;DHT22;39101;53.478;6.158;2022-08-01T07:58:40;17.00;99.90
51500;DHT22;39101;53.478;6.158;2022-08-01T08:01:06;17.00;99.90
51500;DHT22;39101;53.478;6.158;2022-08-01T08:03:31;17.10;99.90
51500;DHT22;39101;53.478;6.158;2022-08-01T08:05:57;17.20;99.90
51500;DHT22;39101;53.478;6.158;2022-08-01T08:08:23;17.20;99.90
51500;DHT22;39101;53.478;6.158;2022-08-01T08:10:49;17.20;99.90
51500;DHT22;39101;53.478;6.158;2022-08-01T08:13:15;17.30;99.90
51500;DHT22;39101;53.478;6.158;2022-08-01T08:15:40;17.20;99.90
51500;DHT22;39101;53.478;6.158;2022-08-01T08:18:06;17.30;99.90
51500;DHT22;39101;53.478;6.158;2022-08-01T08:20:32;17.30;99.90
51500;DHT22;39101;53.478;6.158;2022-08-01T08:22:58;17.40;99.90
51500;DHT22;39101;53.478;6.158;2022-08-01T08:25:25;17.40;99.90
51500;DHT22;39101;53.478;6.158;2022-08-01T08:27:51;17.40;99.90
51500;DHT22;39101;53.478;6.158;2022-08-01T08:30:18;17.40;99.90
51500;DHT22;39101;53.478;6.158;2022-08-01T08:32:44;17.40;99.90
51500;DHT22;39101;53.478;6.158;2022-08-01T08:35:10;17.40;99.90
51500;DHT22;39101;53.478;6.158;2022-08-01T08:37:37;17.40;99.90
51500;DHT22;39101;53.478;6.158;2022-08-01T08:40:06;17.50;99.90
51500;DHT22;39101;53.478;6.158;2022-08-01T08:42:32;17.30;99.90
51500;DHT22;39101;53.478;6.158;2022-08-01T08:44:58;17.40;99.90
51500;DHT22;39101;53.478;6.158;2022-08-01T08:47:25;17.30;99.90
51500;DHT22;39101;53.478;6.158;2022-08-01T08:49:55;17.30;99.90
51500;DHT22;39101;53.478;6.158;2022-08-01T08:52:22;17.20;99.90
51500;DHT22;39101;53.478;6.158;2022-08-01T08:54:49;17.10;99.90
51500;DHT22;39101;53.478;6.158;2022-08-01T08:57:19;17.10;99.90
51500;DHT22;39101;53.478;6.158;2022-08-01T08:59:45;17.10;99.90
51500;DHT22;39101;53.478;6.158;2022-08-01T09:02:11;17.20;99.90
51500;DHT22;39101;53.478;6.158;2022-08-01T09:04:37;17.10;99.90
51500;DHT22;39101;53.478;6.158;2022-08-01T09:07:06;17.10;99.90
51500;DHT22;39101;53.478;6.158;2022-08-01T09:09:34;17.10;99.90
51500;DHT22;39101;53.478;6.158;2022-08-01T09:11:59;17.10;99.90
51500;DHT22;39101;53.478;6.158;2022-08-01T09:14:26;17.00;99.90
51500;DHT22;39101;53.478;6.158;2022-08-01T09:17:09;17.10;99.90
51500;DHT22;39101;53.478;6.158;2022-08-01T09:19:41;17.10;99.90
51500;DHT22;39101;53.478;6.158;2022-08-01T09:22:09;17.20;99.90
51500;DHT22;39101;53.478;6.158;2022-08-01T09:28:17;17.40;99.90
51500;DHT22;39101;53.478;6.158;2022-08-01T09:34:28;17.50;99.90
51500;DHT22;39101;53.478;6.158;2022-08-01T09:37:01;17.40;99.90
51500;DHT22;39101;53.478;6.158;2022-08-01T09:39:54;17.40;99.90
51500;DHT22;39101;53.478;6.158;2022-08-01T09:42:27;17.40;99.90
51500;DHT22;39101;53.478;6.158;2022-08-01T09:44:54;17.40;99.90
51500;DHT22;39101;53.478;6.158;2022-08-01T09:47:20;17.40;99.90
51500;DHT22;39101;53.478;6.158;2022-08-01T09:50:23;17.40;99.90
51500;DHT22;39101;53.478;6.158;2022-08-01T09:53:05;17.40;99.90
51500;DHT22;39101;53.478;6.158;2022-08-01T09:55:31;17.40;99.90
51500;DHT22;39101;53.478;6.158;2022-08-01T09:58:02;17.40;99.90
51500;DHT22;39101;53.478;6.158;2022-08-01T10:00:30;17.40;99.90
51500;DHT22;39101;53.478;6.158;2022-08-01T10:02:58;17.50;99.90
51500;DHT22;39101;53.478;6.158;2022-08-01T10:05:50;17.50;99.90
51500;DHT22;39101;53.478;6.158;2022-08-01T10:08:17;17.40;99.90
51500;DHT22;39101;53.478;6.158;2022-08-01T10:11:08;17.40;99.90
51500;DHT22;39101;53.478;6.158;2022-08-01T10:13:53;17.40;99.90
51500;DHT22;39101;53.478;6.158;2022-08-01T10:16:20;17.50;99.90
51500;DHT22;39101;53.478;6.158;2022-08-01T10:18:46;17.60;99.90
51500;DHT22;39101;53.478;6.158;2022-08-01T10:21:14;17.50;99.90
51500;DHT22;39101;53.478;6.158;2022-08-01T10:23:44;17.60;99.90
51500;DHT22;39101;53.478;6.158;2022-08-01T10:26:12;17.60;99.90
51500;DHT22;39101;53.478;6.158;2022-08-01T10:28:40;17.60;99.90
51500;DHT22;39101;53.478;6.158;2022-08-01T10:31:07;17.60;99.90
51500;DHT22;39101;53.478;6.158;2022-08-01T10:33:34;17.70;99.90
51500;DHT22;39101;53.478;6.158;2022-08-01T10:36:01;17.70;99.90
51500;DHT22;39101;53.478;6.158;2022-08-01T10:38:28;17.70;99.90
51500;DHT22;39101;53.478;6.158;2022-08-01T10:40:55;17.80;99.90
51500;DHT22;39101;53.478;6.158;2022-08-01T10:43:22;17.80;99.90
51500;DHT22;39101;53.478;6.158;2022-08-01T10:45:49;17.80;99.90
51500;DHT22;39101;53.478;6.158;2022-08-01T10:50:49;17.80;99.90
51500;DHT22;39101;53.478;6.158;2022-08-01T10:53:20;17.80;99.90
51500;DHT22;39101;53.478;6.158;2022-08-01T10:58:39;17.70;99.90
51500;DHT22;39101;53.478;6.158;2022-08-01T11:09:31;17.70;99.90
51500;DHT22;39101;53.478;6.158;2022-08-01T11:12:11;17.60;99.90
51500;DHT22;39101;53.478;6.158;2022-08-01T11:17:45;17.60;99.90
51500;DHT22;39101;53.478;6.158;2022-08-01T11:20:37;17.60;99.90
51500;DHT22;39101;53.478;6.158;2022-08-01T11:30:53;17.70;99.90
51500;DHT22;39101;53.478;6.158;2022-08-01T11:38:40;17.80;99.90
51500;DHT22;39101;53.478;6.158;2022-08-01T11:41:14;17.70;99.90
51500;DHT22;39101;53.478;6.158;2022-08-01T11:52:15;17.60;99.90
51500;DHT22;39101;53.478;6.158;2022-08-01T11:54:45;17.70;99.90
51500;DHT22;39101;53.478;6.158;2022-08-01T11:57:21;17.70;99.90
51500;DHT22;39101;53.478;6.158;2022-08-01T11:59:50;17.70;99.90
51500;DHT22;39101;53.478;6.158;2022-08-01T12:07:25;17.60;99.90
51500;DHT22;39101;53.478;6.158;2022-08-01T12:12:30;17.60;99.90
51500;DHT22;39101;53.478;6.158;2022-08-01T12:14:58;17.60;99.90
51500;DHT22;39101;53.478;6.158;2022-08-01T12:17:32;17.60;99.90
51500;DHT22;39101;53.478;6.158;2022-08-01T12:19:59;17.60;99.90
51500;DHT22;39101;53.478;6.158;2022-08-01T12:22:25;17.60;99.90
51500;DHT22;39101;53.478;6.158;2022-08-01T12:24:51;17.60;99.90
51500;DHT22;39101;53.478;6.158;2022-08-01T12:27:29;17.60;99.90
51500;DHT22;39101;53.478;6.158;2022-08-01T12:29:56;17.70;99.90
51500;DHT22;39101;53.478;6.158;2022-08-01T12:32:34;17.70;99.90
51500;DHT22;39101;53.478;6.158;2022-08-01T12:35:10;17.60;99.90
51500;DHT22;39101;53.478;6.158;2022-08-01T12:37:42;17.70;99.90
51500;DHT22;39101;53.478;6.158;2022-08-01T12:40:17;17.70;99.90
51500;DHT22;39101;53.478;6.158;2022-08-01T12:42:49;17.60;99.90
51500;DHT22;39101;53.478;6.158;2022-08-01T12:45:21;17.70;99.90
51500;DHT22;39101;53.478;6.158;2022-08-01T12:47:50;17.70;99.90
51500;DHT22;39101;53.478;6.158;2022-08-01T12:50:19;17.70;99.90
51500;DHT22;39101;53.478;6.158;2022-08-01T12:52:46;17.70;99.90
51500;DHT22;39101;53.478;6.158;2022-08-01T12:55:22;17.70;99.90
51500;DHT22;39101;53.478;6.158;2022-08-01T12:58:04;17.80;99.90
51500;DHT22;39101;53.478;6.158;2022-08-01T13:00:31;17.70;99.90
51500;DHT22;39101;53.478;6.158;2022-08-01T13:03:03;17.70;99.90
51500;DHT22;39101;53.478;6.158;2022-08-01T13:08:15;17.80;99.90
51500;DHT22;39101;53.478;6.158;2022-08-01T13:10:41;17.80;99.90
51500;DHT22;39101;53.478;6.158;2022-08-01T13:13:08;17.80;99.90
51500;DHT22;39101;53.478;6.158;2022-08-01T13:15:39;17.90;99.90
51500;DHT22;39101;53.478;6.158;2022-08-01T13:21:13;17.90;99.90
51500;DHT22;39101;53.478;6.158;2022-08-01T13:23:41;17.90;99.90
51500;DHT22;39101;53.478;6.158;2022-08-01T13:26:07;18.00;99.90
51500;DHT22;39101;53.478;6.158;2022-08-01T13:28:34;17.90;99.90
51500;DHT22;39101;53.478;6.158;2022-08-01T13:31:07;17.80;99.90
51500;DHT22;39101;53.478;6.158;2022-08-01T13:33:47;17.80;99.90
51500;DHT22;39101;53.478;6.158;2022-08-01T13:36:13;17.80;99.90
51500;DHT22;39101;53.478;6.158;2022-08-01T13:38:41;17.70;99.90
51500;DHT22;39101;53.478;6.158;2022-08-01T13:41:26;17.70;99.90
51500;DHT22;39101;53.478;6.158;2022-08-01T13:43:52;17.60;99.90
51500;DHT22;39101;53.478;6.158;2022-08-01T13:46:18;17.60;99.90
51500;DHT22;39101;53.478;6.158;2022-08-01T13:48:44;17.60;99.90
51500;DHT22;39101;53.478;6.158;2022-08-01T13:51:10;17.60;99.90
51500;DHT22;39101;53.478;6.158;2022-08-01T13:53:37;17.50;99.90
51500;DHT22;39101;53.478;6.158;2022-08-01T13:56:03;17.60;99.90
51500;DHT22;39101;53.478;6.158;2022-08-01T13:58:28;17.60;99.90
51500;DHT22;39101;53.478;6.158;2022-08-01T14:00:56;17.60;99.90
51500;DHT22;39101;53.478;6.158;2022-08-01T14:03:22;17.60;99.90
51500;DHT22;39101;53.478;6.158;2022-08-01T14:05:51;17.60;99.90
51500;DHT22;39101;53.478;6.158;2022-08-01T14:08:17;17.70;99.90
51500;DHT22;39101;53.478;6.158;2022-08-01T14:10:43;17.80;99.90
51500;DHT22;39101;53.478;6.158;2022-08-01T14:13:08;17.70;99.90
51500;DHT22;39101;53.478;6.158;2022-08-01T14:15:34;17.70;99.90
51500;DHT22;39101;53.478;6.158;2022-08-01T14:18:00;17.80;99.90
51500;DHT22;39101;53.478;6.158;2022-08-01T14:20:26;17.80;99.90
51500;DHT22;39101;53.478;6.158;2022-08-01T14:22:51;17.70;99.90
51500;DHT22;39101;53.478;6.158;2022-08-01T14:25:17;17.60;99.90
51500;DHT22;39101;53.478;6.158;2022-08-01T14:27:44;17.60;99.90
51500;DHT22;39101;53.478;6.158;2022-08-01T14:30:11;17.70;99.90
51500;DHT22;39101;53.478;6.158;2022-08-01T14:32:37;17.70;99.90
51500;DHT22;39101;53.478;6.158;2022-08-01T14:35:04;17.70;99.90
51500;DHT22;39101;53.478;6.158;2022-08-01T14:37:32;17.70;99.90
51500;DHT22;39101;53.478;6.158;2022-08-01T14:47:26;17.40;99.90
51500;DHT22;39101;53.478;6.158;2022-08-01T14:49:52;17.50;99.90
51500;DHT22;39101;53.478;6.158;2022-08-01T14:52:18;17.60;99.90
51500;DHT22;39101;53.478;6.158;2022-08-01T14:54:44;17.60;99.90
51500;DHT22;39101;53.478;6.158;2022-08-01T14:57:10;17.70;99.90
51500;DHT22;39101;53.478;6.158;2022-08-01T14:59:36;17.70;99.90
51500;DHT22;39101;53.478;6.158;2022-08-01T15:02:02;17.70;99.90
51500;DHT22;39101;53.478;6.158;2022-08-01T15:04:27;17.80;99.90
51500;DHT22;39101;53.478;6.158;2022-08-01T15:06:53;17.80;99.90
51500;DHT22;39101;53.478;6.158;2022-08-01T15:09:20;17.80;99.90
51500;DHT22;39101;53.478;6.158;2022-08-01T15:11:52;17.80;99.90
51500;DHT22;39101;53.478;6.158;2022-08-01T15:14:18;17.80;99.90
51500;DHT22;39101;53.478;6.158;2022-08-01T15:17:02;17.80;99.90
51500;DHT22;39101;53.478;6.158;2022-08-01T15:19:27;17.80;99.90
51500;DHT22;39101;53.478;6.158;2022-08-01T15:21:53;17.80;99.90
51500;DHT22;39101;53.478;6.158;2022-08-01T15:24:19;17.90;99.90
51500;DHT22;39101;53.478;6.158;2022-08-01T15:26:44;17.80;99.90
51500;DHT22;39101;53.478;6.158;2022-08-01T15:29:10;17.90;99.90
51500;DHT22;39101;53.478;6.158;2022-08-01T15:31:37;17.90;99.90
51500;DHT22;39101;53.478;6.158;2022-08-01T15:34:03;17.90;99.90
51500;DHT22;39101;53.478;6.158;2022-08-01T15:36:29;17.90;99.90
51500;DHT22;39101;53.478;6.158;2022-08-01T15:38:54;17.90;99.90
51500;DHT22;39101;53.478;6.158;2022-08-01T15:41:21;17.80;99.90
51500;DHT22;39101;53.478;6.158;2022-08-01T15:43:46;17.80;99.90
51500;DHT22;39101;53.478;6.158;2022-08-01T15:46:12;17.90;99.90
51500;DHT22;39101;53.478;6.158;2022-08-01T15:48:39;17.90;99.90
51500;DHT22;39101;53.478;6.158;2022-08-01T15:51:05;17.90;99.90
51500;DHT22;39101;53.478;6.158;2022-08-01T15:53:30;17.90;99.90
51500;DHT22;39101;53.478;6.158;2022-08-01T15:55:57;17.90;99.90
51500;DHT22;39101;53.478;6.158;2022-08-01T15:58:24;17.90;99.90
51500;DHT22;39101;53.478;6.158;2022-08-01T16:00:50;18.00;99.90
51500;DHT22;39101;53.478;6.158;2022-08-01T16:03:16;18.00;99.90
51500;DHT22;39101;53.478;6.158;2022-08-01T16:05:41;18.00;99.90
51500;DHT22;39101;53.478;6.158;2022-08-01T16:08:09;18.00;99.90
51500;DHT22;39101;53.478;6.158;2022-08-01T16:10:35;18.00;99.90
51500;DHT22;39101;53.478;6.158;2022-08-01T16:13:01;18.00;99.90
51500;DHT22;39101;53.478;6.158;2022-08-01T16:15:26;18.00;99.90
51500;DHT22;39101;53.478;6.158;2022-08-01T16:17:52;18.10;99.90
51500;DHT22;39101;53.478;6.158;2022-08-01T16:20:18;18.10;99.90
51500;DHT22;39101;53.478;6.158;2022-08-01T16:22:45;18.10;99.90
51500;DHT22;39101;53.478;6.158;2022-08-01T16:25:11;18.10;99.90
51500;DHT22;39101;53.478;6.158;2022-08-01T16:27:39;18.10;99.90
51500;DHT22;39101;53.478;6.158;2022-08-01T16:34:16;18.20;99.90
51500;DHT22;39101;53.478;6.158;2022-08-01T16:36:45;18.10;99.90
51500;DHT22;39101;53.478;6.158;2022-08-01T16:39:11;18.10;99.90
51500;DHT22;39101;53.478;6.158;2022-08-01T16:41:37;18.10;99.90
51500;DHT22;39101;53.478;6.158;2022-08-01T16:44:02;18.10;99.90
51500;DHT22;39101;53.478;6.158;2022-08-01T16:46:28;18.10;99.90
51500;DHT22;39101;53.478;6.158;2022-08-01T16:48:54;18.20;99.90
51500;DHT22;39101;53.478;6.158;2022-08-01T16:51:20;18.10;99.90
51500;DHT22;39101;53.478;6.158;2022-08-01T16:53:45;18.20;99.90
51500;DHT22;39101;53.478;6.158;2022-08-01T16:56:11;18.20;99.90
51500;DHT22;39101;53.478;6.158;2022-08-01T16:58:37;18.30;99.90
51500;DHT22;39101;53.478;6.158;2022-08-01T17:01:03;18.30;99.90
51500;DHT22;39101;53.478;6.158;2022-08-01T17:03:30;18.30;99.90
51500;DHT22;39101;53.478;6.158;2022-08-01T17:05:55;18.30;99.90
51500;DHT22;39101;53.478;6.158;2022-08-01T17:08:21;18.30;99.90
51500;DHT22;39101;53.478;6.158;2022-08-01T17:10:47;18.30;99.90
51500;DHT22;39101;53.478;6.158;2022-08-01T17:13:13;18.30;99.90
51500;DHT22;39101;53.478;6.158;2022-08-01T17:15:38;18.30;99.90